Weather observations for the past three days for
Sundance Airport
Imperial (Metric)
Date Time (cdt) Wind (mph) Vis. (mi.) Weather Sky Cond. Temperature (ºF) Relative Humidity Wind Chill (°F) Heat Index (°F) Pressure Precipitation (in)
Air Dwpt 6 hour altimeter (in) sea level (mb) 1 hr 3 hr 6 hr
Max. Min.
04 10:35 SW 18 G 32 10.00 Fair CLR 73.4 50 44% 29.73 0.0
04 10:15 S 24 G 35 10.00 Fair and Breezy CLR 71.6 48.2 44% 29.73 0.0
04 09:55 S 20 G 31 10.00 Fair CLR 71.6 48.2 44% 29.73 0.0
04 09:35 S 22 G 31 10.00 Fair and Breezy CLR 69.8 48.2 46% 29.74 0.0
04 09:15 S 25 G 32 10.00 Fair and Breezy CLR 68 48.2 49% 29.74 0.0
04 08:55 S 23 G 33 10.00 Fair and Breezy CLR 68 48.2 49% 29.74 0.0
04 08:35 S 25 G 31 10.00 Fair and Breezy CLR 68 48.2 49% 29.74 0.0
04 08:15 S 22 G 31 10.00 Fair and Breezy CLR 66.2 48.2 52% 29.75 0.0
04 07:55 S 23 G 31 10.00 Fair and Breezy CLR 64.4 48.2 56% 29.75 0.0
04 07:35 S 23 G 29 10.00 Fair and Breezy CLR 64.4 46.4 52% 29.75 0.0
04 07:15 S 22 10.00 Fair and Breezy CLR 62.6 46.4 56% 29.74 0.0
04 06:55 S 20 10.00 Fair CLR 62.6 46.4 56% 29.75 0.0
04 06:35 S 21 G 28 10.00 Fair and Breezy CLR 62.6 46.4 56% 29.75 0.0
04 06:15 S 23 G 29 10.00 Fair and Breezy CLR 62.6 46.4 56% 29.75 0.0
04 05:55 S 22 G 28 10.00 Fair and Breezy CLR 62.6 44.6 52% 29.77 0.0
04 05:35 S 20 G 28 10.00 Fair CLR 64.4 44.6 49% 29.77 0.0
04 05:15 S 21 10.00 Fair and Breezy CLR 64.4 44.6 49% 29.77 0.0
04 04:55 S 20 G 30 10.00 Fair CLR 64.4 44.6 49% 29.77 0.0
04 04:35 S 20 G 29 10.00 Fair CLR 64.4 44.6 49% 29.78 0.0
04 04:15 S 22 G 30 10.00 Fair and Breezy CLR 66.2 44.6 46% 29.78 0.0
04 03:55 S 22 G 35 10.00 Fair and Breezy CLR 66.2 42.8 43% 29.78 0.0
04 03:35 S 22 G 30 10.00 Fair and Breezy CLR 66.2 42.8 43% 29.79 0.0
04 03:15 S 20 G 28 10.00 Fair CLR 66.2 42.8 43% 29.79 0.0
04 02:55 S 20 G 26 10.00 Fair CLR 66.2 42.8 43% 29.8 0.0
04 02:35 S 22 10.00 Fair and Breezy CLR 66.2 42.8 43% 29.81 0.0
04 02:15 S 18 G 26 10.00 Fair CLR 68 42.8 40% 29.81 0.0
04 01:55 S 18 G 26 10.00 Fair CLR 66.2 42.8 43% 29.82 0.0
04 01:35 S 20 G 26 10.00 Fair CLR 68 42.8 40% 29.83 0.0
04 01:15 S 18 G 26 10.00 Fair CLR 68 41 38% 29.84 0.0
04 00:35 S 17 G 25 10.00 Fair CLR 68 41 38% 29.85 0.0
04 00:15 S 21 G 26 10.00 Fair and Breezy CLR 69.8 42.8 38% 29.85 0.0
03 23:55 S 21 G 28 10.00 Fair and Breezy CLR 69.8 42.8 38% 29.86 0.0
03 23:35 S 20 G 26 10.00 Fair CLR 69.8 41 35% 29.86 0.0
03 23:15 S 20 10.00 Fair CLR 69.8 41 35% 29.86 0.0
03 22:55 S 20 G 26 10.00 Fair CLR 71.6 41 33% 29.87 0.0
03 22:35 S 18 G 24 10.00 Fair CLR 71.6 41 33% 29.87 0.0
03 22:15 S 21 10.00 Fair and Breezy CLR 71.6 41 33% 29.87 0.0
03 21:55 S 16 G 28 10.00 Fair CLR 71.6 41 33% 29.87 0.0
03 21:35 S 18 G 29 10.00 Fair CLR 73.4 41 31% 29.87 0.0
03 21:15 S 18 G 25 10.00 Fair CLR 73.4 41 31% 29.86 0.0
03 20:55 S 16 10.00 Fair CLR 73.4 41 31% 29.86 0.0
03 20:35 S 15 G 22 10.00 Fair CLR 75.2 41 29% 77 29.86 0.0
03 20:15 S 17 10.00 Fair CLR 77 39.2 26% 77 29.85 0.0
03 19:55 S 15 G 22 10.00 Fair CLR 77 37.4 24% 77 29.86 0.0
03 19:35 S 17 G 23 10.00 Fair CLR 78.8 37.4 23% 78 29.86 0.0
03 19:15 S 20 G 32 10.00 Fair CLR 80.6 35.6 20% 79 29.86 0.0
03 18:55 S 22 G 30 10.00 Fair and Breezy CLR 82.4 35.6 19% 80 29.87 0.0
03 18:35 SW 18 G 29 10.00 Fair CLR 82.4 35.6 19% 80 29.87 0.0
03 18:15 S 25 10.00 Fair and Breezy CLR 82.4 35.6 19% 80 29.88 0.0
03 17:55 S 22 G 32 10.00 Fair and Breezy CLR 82.4 35.6 19% 80 29.88 0.0
03 17:35 S 24 G 30 9.00 Fair and Breezy CLR 84.2 35.6 18% 81 29.88 0.0
03 17:15 S 24 G 31 9.00 Fair and Breezy CLR 84.2 35.6 18% 81 29.89 0.0
03 16:55 SW 18 G 31 10.00 Fair CLR 84.2 37.4 19% 81 29.89 0.0
03 16:35 SW 21 G 29 10.00 Fair and Breezy CLR 84.2 37.4 19% 81 29.9 0.0
03 16:15 SW 18 G 36 10.00 Fair CLR 84.2 37.4 19% 81 29.91 0.0
03 15:55 SW 23 G 30 10.00 Fair and Breezy CLR 84.2 35.6 18% 81 29.92 0.0
03 15:35 SW 18 G 26 10.00 Fair CLR 84.2 35.6 18% 81 29.93 0.0
03 15:15 SW 23 G 32 10.00 Fair and Breezy CLR 84.2 35.6 18% 81 29.94 0.0
03 14:55 SW 20 10.00 Fair CLR 84.2 35.6 18% 81 29.95 0.0
03 14:35 SW 14 G 28 10.00 Fair CLR 84.2 35.6 18% 81 29.96 0.0
03 14:15 SW 14 G 28 10.00 Fair CLR 84.2 37.4 19% 81 29.97 0.0
03 13:55 SW 18 G 26 10.00 Fair CLR 84.2 33.8 16% 81 29.98 0.0
03 13:35 SW 22 10.00 Fair and Breezy CLR 84.2 35.6 18% 81 29.99 0.0
03 13:15 SW 22 G 30 10.00 Fair and Breezy CLR 84.2 37.4 19% 81 30 0.0
03 12:55 SW 15 G 24 10.00 Fair CLR 82.4 37.4 20% 80 30.01 0.0
03 12:35 SW 14 G 22 10.00 Fair CLR 82.4 41 23% 80 30.01 0.0
03 12:15 SW 14 10.00 Fair CLR 82.4 42.8 25% 80 30.02 0.0
03 11:55 SW 15 10.00 Fair CLR 80.6 42.8 26% 79 30.03 0.0
03 11:35 SW 14 10.00 Fair CLR 78.8 42.8 28% 78 30.03 0.0
03 11:15 SW 15 10.00 Fair CLR 77 42.8 30% 78 30.03 0.0
03 10:55 SW 14 10.00 Fair CLR 75.2 42.8 31% 77 30.03 0.0
03 10:35 SW 13 10.00 Fair CLR 73.4 42.8 33% 30.04 0.0
03 10:15 SW 12 10.00 Fair CLR 71.6 44.6 38% 30.04 0.0
03 09:55 SW 12 10.00 Fair CLR 69.8 44.6 40% 30.04 0.0
03 09:35 SW 12 10.00 Fair CLR 66.2 44.6 46% 30.04 0.0
03 09:15 SW 15 10.00 Fair CLR 64.4 44.6 49% 30.04 0.0
03 08:55 SW 13 G 18 10.00 Fair CLR 64.4 44.6 49% 30.04 0.0
03 08:35 SW 14 10.00 Fair CLR 60.8 44.6 55% 30.04 0.0
03 08:15 SW 9 G 15 10.00 Fair CLR 59 46.4 63% 30.04 0.0
03 07:55 SW 10 10.00 Fair CLR 57.2 46.4 67% 30.04 0.0
03 07:35 S 10 10.00 Fair CLR 55.4 46.4 72% 30.03 0.0
03 07:15 S 9 10.00 Fair CLR 53.6 46.4 77% 30.03 0.0
03 06:55 S 7 10.00 Fair CLR 53.6 46.4 77% 30.02 0.0
03 06:35 S 9 10.00 Fair CLR 53.6 46.4 77% 30.02 0.0
03 06:15 S 9 10.00 Fair CLR 53.6 46.4 77% 30.02 0.0
03 05:55 S 9 10.00 Fair CLR 53.6 46.4 77% 30.02 0.0
03 05:35 S 8 10.00 Fair CLR 55.4 44.6 67% 30.03 0.0
03 05:15 S 9 10.00 Fair CLR 55.4 44.6 67% 30.04 0.0
03 04:55 S 9 10.00 Fair CLR 55.4 44.6 67% 30.04 0.0
03 04:35 SE 9 10.00 Fair CLR 57.2 44.6 63% 30.05 0.0
03 04:15 SE 9 10.00 Fair CLR 57.2 44.6 63% 30.05 0.0
03 03:55 SE 8 10.00 Fair CLR 57.2 44.6 63% 30.06 0.0
03 03:35 SE 10 10.00 Fair CLR 57.2 44.6 63% 30.06 0.0
03 03:15 SE 6 10.00 Fair CLR 57.2 44.6 63% 30.07 0.0
03 02:55 SE 9 10.00 Fair CLR 57.2 42.8 59% 30.07 0.0
03 02:35 SE 9 10.00 Fair CLR 59 42.8 55% 30.08 0.0
03 02:15 SE 7 10.00 Fair CLR 59 41 51% 30.09 0.0
03 01:55 SE 7 10.00 Fair CLR 59 41 51% 30.09 0.0
03 01:35 SE 9 10.00 Fair CLR 59 41 51% 30.1 0.0
03 01:15 SE 7 10.00 Fair CLR 59 41 51% 30.1 0.0
03 00:55 SE 7 10.00 Fair CLR 59 41 51% 30.11 0.0
03 00:35 SE 7 10.00 Fair CLR 60.8 41 48% 30.1 0.0
03 00:15 SE 6 10.00 Fair CLR 60.8 41 48% 30.1 0.0
02 23:55 SE 7 10.00 Fair CLR 60.8 41 48% 30.1 0.0
02 23:35 SE 6 10.00 Fair CLR 60.8 41 48% 30.1 0.0
02 23:15 SE 6 10.00 Fair CLR 62.6 42.8 49% 30.1 0.0
02 22:55 SE 7 10.00 Fair CLR 62.6 41 45% 30.1 0.0
02 22:35 E 5 10.00 Fair CLR 62.6 41 45% 30.1 0.0
02 22:15 E 5 10.00 Fair CLR 62.6 41 45% 30.09 0.0
02 21:55 E 6 10.00 Fair CLR 62.6 41 45% 30.09 0.0
02 21:35 E 5 10.00 Fair CLR 64.4 41 43% 30.09 0.0
02 21:15 NE 6 10.00 Fair CLR 64.4 41 43% 30.08 0.0
02 20:55 NE 6 10.00 Fair CLR 66.2 41 40% 30.07 0.0
02 20:35 E 7 10.00 Fair CLR 66.2 41 40% 30.07 0.0
02 20:15 NE 6 10.00 Fair CLR 68 41 38% 30.07 0.0
02 19:55 NE 6 10.00 Fair CLR 69.8 41 35% 30.06 0.0
02 19:35 NE 10 10.00 Fair CLR 71.6 39.2 31% 30.06 0.0
02 19:15 NE 9 10.00 Fair CLR 71.6 39.2 31% 30.06 0.0
02 18:55 NE 9 10.00 Fair CLR 71.6 41 33% 30.06 0.0
02 18:35 NE 9 10.00 Fair CLR 73.4 41 31% 30.07 0.0
02 18:15 NE 7 10.00 Fair CLR 73.4 41 31% 30.06 0.0
02 17:55 NE 5 10.00 Fair CLR 73.4 41 31% 30.07 0.0
02 17:35 Vrbl 5 G 14 10.00 Fair CLR 73.4 39.2 29% 30.07 0.0
02 17:15 NE 7 G 13 10.00 Fair CLR 73.4 41 31% 30.08 0.0
02 16:55 E 8 G 14 10.00 Fair CLR 73.4 41 31% 30.08 0.0
02 16:35 NE 3 10.00 Fair CLR 73.4 41 31% 30.09 0.0
02 16:15 Vrbl 5 10.00 Fair CLR 71.6 41 33% 30.09 0.0
02 15:55 Vrbl 3 G 14 10.00 Fair CLR 71.6 41 33% 30.1 0.0
02 15:35 Vrbl 6 10.00 Fair CLR 71.6 42.8 36% 30.11 0.0
02 15:15 N 8 G 21 10.00 Fair CLR 73.4 42.8 33% 30.12 0.0
02 14:55 N 7 9.00 Fair CLR 71.6 41 33% 30.12 0.0
02 14:15 N 6 G 13 10.00 Fair CLR 69.8 41 35% 30.13 0.0
02 13:55 Vrbl 5 G 15 10.00 Fair CLR 69.8 42.8 38% 30.14 0.0
02 13:35 Vrbl 7 G 15 10.00 A Few Clouds FEW090 69.8 42.8 38% 30.14 0.0
02 13:15 N 10 G 20 10.00 A Few Clouds FEW090 69.8 42.8 38% 30.15 0.0
02 12:55 NE 10 10.00 Fair CLR 69.8 41 35% 30.16 0.0
02 12:35 NE 10 10.00 Fair CLR 69.8 41 35% 30.16 0.0
02 12:15 N 10 10.00 Fair CLR 69.8 41 35% 30.16 0.0
02 11:55 NE 9 10.00 Fair CLR 68 39.2 35% 30.16 0.0
02 11:35 N 8 10.00 Fair CLR 68 41 38% 30.16 0.0
02 11:15 Vrbl 3 10.00 Fair CLR 68 41 38% 30.16 0.0
02 10:55 Calm 10.00 Fair CLR 66.2 42.8 43% 30.16 0.0
02 10:35 Calm 10.00 A Few Clouds FEW120 64.4 42.8 46% 30.15 0.0
02 10:15 W 3 10.00 A Few Clouds FEW110 64.4 42.8 46% 30.16 0.0
02 09:55 Calm 10.00 Fair CLR 62.6 42.8 49% 30.16 0.0
02 09:35 Calm 10.00 Fair CLR 60.8 41 48% 30.16 0.0
02 09:15 S 9 10.00 Fair CLR 59 41 51% 30.15 0.0
02 08:55 S 9 G 16 10.00 Fair CLR 57.2 41 55% 30.15 0.0
02 08:35 S 10 10.00 Fair CLR 57.2 42.8 59% 30.14 0.0
02 08:15 S 6 10.00 Fair CLR 57.2 41 55% 30.15 0.0
02 07:55 S 3 10.00 Fair CLR 53.6 41 63% 30.15 0.0
02 07:35 Calm 10.00 Fair CLR 51.8 41 67% 30.14 0.0
02 07:15 S 6 10.00 Fair CLR 51.8 39.2 62% 30.13 0.0
02 06:55 SE 9 10.00 Fair CLR 51.8 39.2 62% 30.12 0.0
02 06:35 SE 9 10.00 Fair CLR 51.8 39.2 62% 30.12 0.0
02 06:15 SE 9 10.00 Fair CLR 51.8 39.2 62% 30.12 0.0
02 05:55 SE 9 10.00 A Few Clouds FEW110 50 41 71% 47 30.12 0.0
02 05:35 SE 5 10.00 Mostly Cloudy FEW070 SCT085 BKN110 50 41 71% 49 30.13 0.0
02 05:15 NE 8 10.00 Overcast FEW070 OVC080 50 41 71% 47 30.14 0.0
02 04:55 N 8 10.00 Mostly Cloudy SCT080 BKN110 50 41 71% 47 30.13 0.0
02 04:35 W 6 10.00 Mostly Cloudy SCT090 BKN120 51.8 39.2 62% 30.1 0.0
02 04:15 SW 6 10.00 Partly Cloudy SCT090 50 39.2 67% 48 30.1 0.0
02 03:55 SW 9 10.00 A Few Clouds FEW090 51.8 39.2 62% 30.09 0.0
02 03:35 SW 6 10.00 A Few Clouds FEW090 51.8 39.2 62% 30.09 0.0
02 03:15 S 7 10.00 Fair CLR 51.8 39.2 62% 30.09 0.0
02 02:55 S 6 10.00 Fair CLR 50 39.2 67% 48 30.09 0.0
02 02:35 SW 3 10.00 Fair CLR 50 39.2 67% 30.09 0.0
02 02:15 S 8 10.00 Fair CLR 51.8 39.2 62% 30.09 0.0
02 01:55 S 9 10.00 Fair CLR 51.8 39.2 62% 30.09 0.0
02 01:35 S 8 10.00 Fair CLR 51.8 39.2 62% 30.1 0.0
02 01:15 S 5 10.00 Fair CLR 51.8 39.2 62% 30.1 0.0
02 00:55 S 8 10.00 Fair CLR 53.6 39.2 58% 30.1 0.0
02 00:35 S 8 10.00 Fair CLR 53.6 39.2 58% 30.1 0.0
02 00:15 S 9 10.00 Fair CLR 53.6 39.2 58% 30.1 0.0
01 23:55 S 5 10.00 Fair CLR 53.6 39.2 58% 30.1 0.0
01 23:35 S 5 10.00 Fair CLR 55.4 37.4 51% 30.09 0.0
01 23:15 SE 7 10.00 Fair CLR 57.2 37.4 48% 30.1 0.0
01 22:55 SE 6 10.00 Fair CLR 57.2 37.4 48% 30.09 0.0
01 22:35 SE 5 10.00 Fair CLR 57.2 37.4 48% 30.09 0.0
01 22:15 SE 5 10.00 Fair CLR 59 35.6 42% 30.09 0.0
01 21:55 SE 6 10.00 Fair CLR 59 35.6 42% 30.08 0.0
01 21:35 SE 6 10.00 Fair CLR 60.8 35.6 39% 30.08 0.0
01 21:15 SE 6 10.00 Fair CLR 62.6 33.8 34% 30.07 0.0
01 20:55 E 3 10.00 Fair CLR 62.6 35.6 37% 30.06 0.0
01 20:35 Calm 10.00 Fair CLR 62.6 35.6 37% 30.06 0.0
01 20:15 NE 5 10.00 Fair CLR 64.4 33.8 32% 30.05 0.0
01 19:55 E 6 10.00 Fair CLR 64.4 33.8 32% 30.04 0.0
01 19:35 NE 8 10.00 Fair CLR 64.4 33.8 32% 30.04 0.0
01 19:15 NE 6 10.00 Fair CLR 66.2 33.8 30% 30.04 0.0
01 18:55 NE 9 10.00 Fair CLR 66.2 32 28% 30.04 0.0
01 18:35 NE 8 10.00 Fair CLR 66.2 32 28% 30.03 0.0
01 18:15 NE 9 G 15 10.00 Fair CLR 68 33.8 28% 30.03 0.0
01 17:55 NE 12 10.00 Fair CLR 68 33.8 28% 30.02 0.0
01 17:35 N 10 G 16 10.00 A Few Clouds FEW080 68 33.8 28% 30.02 0.0
01 17:15 NE 8 G 15 10.00 Mostly Cloudy BKN080 68 33.8 28% 30.02 0.0
01 16:55 NE 10 G 17 10.00 A Few Clouds FEW085 69.8 33.8 27% 30.02 0.0
01 16:35 N 12 10.00 Fair CLR 69.8 33.8 27% 30.02 0.0
01 16:15 NE 12 G 18 10.00 Fair CLR 68 33.8 28% 30.03 0.0
01 15:55 NE 15 10.00 A Few Clouds FEW080 69.8 37.4 31% 30.03 0.0
01 15:35 NE 16 10.00 Mostly Cloudy BKN075 68 35.6 30% 30.04 0.0
01 15:15 NE 10 G 18 10.00 Mostly Cloudy SCT070 BKN080 68 33.8 28% 30.05 0.0
01 14:55 N 9 G 17 10.00 A Few Clouds FEW070 68 37.4 33% 30.06 0.0
01 14:35 NE 14 G 24 10.00 Partly Cloudy SCT070 68 37.4 33% 30.06 0.0
01 14:15 NE 14 G 23 10.00 Partly Cloudy FEW060 SCT075 SCT085 69.8 35.6 29% 30.07 0.0
01 13:55 N 13 G 22 10.00 Mostly Cloudy SCT060 BKN075 66.2 33.8 30% 30.07 0.0
01 13:35 E 14 10.00 Mostly Cloudy SCT060 BKN080 68 39.2 35% 30.08 0.0
01 13:15 NE 14 10.00 Partly Cloudy SCT060 68 39.2 35% 30.09 0.0
01 12:55 NE 12 G 18 10.00 A Few Clouds FEW050 68 39.2 35% 30.1 0.0
01 12:35 E 13 10.00 A Few Clouds FEW050 66.2 42.8 43% 30.1 0.0
01 12:15 E 7 G 14 10.00 Fair CLR 66.2 42.8 43% 30.1 0.0
01 11:55 NE 9 10.00 Fair CLR 64.4 44.6 49% 30.1 0.0
01 11:35 NE 12 10.00 Fair CLR 66.2 44.6 46% 30.1 0.0
01 11:15 E 12 10.00 Fair CLR 64.4 46.4 52% 30.1 0.0
Date Time (cdt) Wind (mph) Vis. (mi.) Weather Sky Cond. Air Dwpt Max. Min. Relative Humidity Wind Chill (°F) Heat Index (°F) altimeter (in) sea level (mb) 1 hr 3 hr 6 hr
6 hour
Temperature (ºF) Pressure Precipitation (in)